Ana Sayfa
METAR-TAF:

METAR-TAF

Havaalanları :

Karaçi, Pakistan

Enlem: 24-54N, Boylam: 067-08E, yükseklik: 21 m

Güncel hava durumu gözlemi

Rapor saat 15:55 UTC de 1 saat ve 4 dakika önce yapıldı.
Rüzgar kuzeydoğudan 8 kt
Sıcaklık 16°C
Nem 48%
Basınç 1020 hPa
Görüş mesafesi: 5000 m
Toz Pusu

METAR: OPKC 141555Z 04008KT 5000 HZ 16/05 Q1020 NOSIG

Saat: 21:59 (16:59 UTC)

Tahmin

Rapor saat 09:30 UTC de 7 saat ve 29 dakika önce yapıldı.
Ayın 14'si saat 12 UTC'den ayın 15'si saat 18 UTC'ye kadar geçerli Tahmin
Rüzgar kuzeydoğudan 10 kt ve 20 kt'a kadar ani rüzgarlar
Görüş mesafesi: 6000 m
Geçici
ayın 15'si saat 00 UTC'den ayın 15'si saat 04 UTC'ye kadar
Rüzgar kuzeydoğudan 5 kt ve 15 kt'a kadar ani rüzgarlar
Görüş mesafesi: 4000 m
Toz Pusu
Ayın 15'si saat 0500 UTC'den
Rüzgar kuzeydoğudan 15 kt ve 25 kt'a kadar ani rüzgarlar
Görüş mesafesi: 5000 m
Toz Pusu

TAF: OPKC 140930Z 1412/1518 05010G20KT 6000 NSC TEMPO 1500/1504 05005G15KT 4000 HZ NSC FM150500 05015G25KT 5000 HZ NSC

4.000'den fazla havaalanı için hava durumu gözlemleri ve tahminleri (METAR ve TAF raporları).

Kullanılabilir istasyonlar harita üzerinde sarı ve kırmızı noktalarla gösterilir.

İstasyonun adını görmek için fareyi noktanın üzerinde gezdirin.

Sonrasında hava gözlem ve tahminlerini görmek için tıklayın.

Haritayı değiştirmek için: yaklaştırmak için siyah artı işaretli yeşil düğmeye ve uzaklaştırmak için de eksi işaretli düğmeye hızla tıklayın; bitişik haritalar için yeşil okları kullanın.


METAR-TAF: